Mc Veigh, Kentucky
Current Conditions -  °F | °C
As of 11:15 PM on Sunday 23 Nov 2014 (Local Time) from KPBX Reporting Station
Overcast Overcast  
Wind Chill: 60°   Ceiling: 8000
Heat Index: 60°   Visibility: 10mi
Dew Point: 51°   Wind: 16mph
Humidity: 71%   Direction: 170°S
Pressure: 29.49"   Gusts: 28mph
Location:  37.5198°N, 82.3013°W
Report Text: KPBX 240415Z AUTO 17014G24KT 140V200 10SM SCT050 SCT055 OVC080 16/11 A2949 RMK AO2 T01570105
Loading
Personal Weather Stations






























Interactive Weather Map New forecast layout! Learn more

10-Day Weather Forecast

Advertisements
Track Severe Weather on mobile